Time;durP1;ratioP1;P1;durP2;ratioP2;P2;SDS_P1;SDS_P2;PMS_P1;PMS_P2;Temp;Humidity;BMP_temperature;BMP_pressure;BME280_temperature;BME280_humidity;BME280_pressure;Samples;Min_cycle;Max_cycle;Signal;HPM_P1;HPM_P2
2021/12/08 00:00:28;;;;;;;3.97;2.80;;;;;;;;;;2072653;28;20223;-57
2021/12/08 00:01:28;;;;;;;7.90;3.17;;;;;;;;;;2073284;28;20176;-58
2021/12/08 00:02:28;;;;;;;3.47;3.03;;;;;;;;;;2073380;28;20651;-53
2021/12/08 00:03:30;;;;;;;3.47;3.07;;;;;;;;;;2072581;28;20672;-56
2021/12/08 00:04:30;;;;;;;4.03;3.20;;;;;;;;;;2073375;28;20184;-56
2021/12/08 00:05:30;;;;;;;3.43;2.90;;;;;;;;;;2073819;28;20900;-53
2021/12/08 00:06:31;;;;;;;3.47;2.97;;;;;;;;;;2072614;28;20200;-57
2021/12/08 00:07:32;;;;;;;4.07;3.13;;;;;;;;;;2072253;28;20732;-57
2021/12/08 00:08:33;;;;;;;5.23;2.90;;;;;;;;;;2072462;28;20208;-56
2021/12/08 00:10:00;;;;;;;5.00;2.90;;;;;;;;;;2073450;28;20173;-59
2021/12/08 00:13:20;;;;;;;3.67;2.93;;;;;;;;;;2072210;28;20196;-58
2021/12/08 00:14:20;;;;;;;3.37;2.90;;;;;;;;;;2067874;28;20173;-56
2021/12/08 00:15:20;;;;;;;5.37;3.20;;;;;;;;;;2072024;28;20173;-56
2021/12/08 00:16:20;;;;;;;4.70;2.60;;;;;;;;;;2070289;28;20634;-58
2021/12/08 00:17:21;;;;;;;5.73;2.63;;;;;;;;;;2072167;28;20165;-57
2021/12/08 00:18:24;;;;;;;3.00;2.47;;;;;;;;;;2071847;28;20227;-57
2021/12/08 00:19:24;;;;;;;4.27;3.30;;;;;;;;;;2072290;28;20681;-58
2021/12/08 00:20:27;;;;;;;4.60;3.40;;;;;;;;;;2071196;28;20177;-57
2021/12/08 00:21:28;;;;;;;2.77;2.57;;;;;;;;;;2071782;28;20169;-53
2021/12/08 00:22:28;;;;;;;3.23;2.80;;;;;;;;;;2070173;28;20180;-56
2021/12/08 00:23:29;;;;;;;7.00;3.47;;;;;;;;;;2072405;28;20212;-54
2021/12/08 00:24:29;;;;;;;3.77;2.60;;;;;;;;;;2071381;28;20191;-57
2021/12/08 00:25:29;;;;;;;4.83;3.27;;;;;;;;;;2072032;28;20169;-58
2021/12/08 00:26:30;;;;;;;4.30;3.07;;;;;;;;;;2071151;28;20221;-57
2021/12/08 00:27:30;;;;;;;3.93;3.20;;;;;;;;;;2069700;28;20259;-58
2021/12/08 00:28:31;;;;;;;5.27;3.10;;;;;;;;;;2070652;28;20274;-57
2021/12/08 00:29:31;;;;;;;3.40;3.10;;;;;;;;;;2071309;28;20205;-58
2021/12/08 00:30:32;;;;;;;4.67;3.50;;;;;;;;;;2070856;28;20576;-61
2021/12/08 00:31:33;;;;;;;2.83;2.57;;;;;;;;;;2073074;28;20180;-58
2021/12/08 00:32:36;;;;;;;4.30;3.00;;;;;;;;;;2072166;28;20913;-57
2021/12/08 00:33:36;;;;;;;5.80;3.10;;;;;;;;;;2071583;28;20228;-57
2021/12/08 00:34:38;;;;;;;6.07;3.43;;;;;;;;;;2071964;28;20188;-60
2021/12/08 00:35:40;;;;;;;4.87;3.00;;;;;;;;;;2074229;28;20191;-58
2021/12/08 00:36:43;;;;;;;3.83;3.43;;;;;;;;;;2070956;28;20173;-59
2021/12/08 00:37:44;;;;;;;6.50;3.20;;;;;;;;;;2073143;28;20184;-57
2021/12/08 00:38:44;;;;;;;4.33;3.07;;;;;;;;;;2071224;28;20165;-57
2021/12/08 00:39:44;;;;;;;5.50;3.37;;;;;;;;;;2070761;28;20260;-59
2021/12/08 00:40:45;;;;;;;4.53;3.30;;;;;;;;;;2070236;28;20184;-57
2021/12/08 00:41:45;;;;;;;5.97;3.30;;;;;;;;;;2073406;28;20252;-61
2021/12/08 00:42:46;;;;;;;5.10;2.97;;;;;;;;;;2071753;28;20197;-58
2021/12/08 00:43:47;;;;;;;4.77;3.17;;;;;;;;;;2073391;28;20215;-58
2021/12/08 00:44:47;;;;;;;5.70;3.10;;;;;;;;;;2071984;28;20235;-54
2021/12/08 00:45:47;;;;;;;4.70;3.60;;;;;;;;;;2074070;28;20180;-52
2021/12/08 00:46:47;;;;;;;7.50;3.33;;;;;;;;;;2072040;28;20173;-56
2021/12/08 00:47:49;;;;;;;3.73;3.43;;;;;;;;;;2073172;28;20180;-58
2021/12/08 00:48:50;;;;;;;5.47;3.10;;;;;;;;;;2072025;28;20191;-56
2021/12/08 00:49:50;;;;;;;4.40;2.90;;;;;;;;;;2072715;28;20219;-56
2021/12/08 00:50:51;;;;;;;4.93;3.67;;;;;;;;;;2071877;28;20248;-54
2021/12/08 00:51:53;;;;;;;5.63;3.57;;;;;;;;;;2073922;28;20245;-58
2021/12/08 00:52:54;;;;;;;3.77;3.30;;;;;;;;;;2072378;28;20174;-53
2021/12/08 00:53:54;;;;;;;4.60;3.03;;;;;;;;;;2073916;28;20679;-59
2021/12/08 00:54:55;;;;;;;4.23;2.97;;;;;;;;;;2070524;28;20169;-58
2021/12/08 00:55:55;;;;;;;4.17;3.27;;;;;;;;;;2071914;28;20217;-57
2021/12/08 00:56:57;;;;;;;4.13;3.53;;;;;;;;;;2064720;28;20674;-59
2021/12/08 00:57:57;;;;;;;8.27;3.50;;;;;;;;;;2057390;28;20171;-58
2021/12/08 00:58:58;;;;;;;5.43;3.70;;;;;;;;;;2063281;28;20839;-58
2021/12/08 01:00:00;;;;;;;5.33;3.40;;;;;;;;;;2064775;28;20166;-56
2021/12/08 01:01:00;;;;;;;8.17;3.33;;;;;;;;;;2069205;28;20188;-59
2021/12/08 01:02:02;;;;;;;5.73;2.90;;;;;;;;;;2072377;28;20205;-63
2021/12/08 01:03:03;;;;;;;4.63;3.60;;;;;;;;;;2074058;28;20181;-59
2021/12/08 01:04:04;;;;;;;4.57;2.80;;;;;;;;;;2073651;28;20166;-60
2021/12/08 01:05:24;;;;;;;4.17;3.23;;;;;;;;;;2072099;28;20259;-59
2021/12/08 01:06:25;;;;;;;5.53;3.47;;;;;;;;;;2069979;28;20188;-58
2021/12/08 01:07:25;;;;;;;6.23;3.10;;;;;;;;;;2071744;28;20502;-55
2021/12/08 01:08:27;;;;;;;3.60;2.87;;;;;;;;;;2073777;28;20633;-57
2021/12/08 01:09:27;;;;;;;4.00;3.07;;;;;;;;;;2071320;28;20236;-60
2021/12/08 01:10:28;;;;;;;6.73;3.60;;;;;;;;;;2072791;28;20786;-58
2021/12/08 01:11:28;;;;;;;4.37;3.13;;;;;;;;;;2073906;28;20216;-59
2021/12/08 01:12:29;;;;;;;4.00;3.10;;;;;;;;;;2073979;28;20212;-58
2021/12/08 01:13:29;;;;;;;4.57;3.17;;;;;;;;;;2074082;28;20247;-59
2021/12/08 01:14:31;;;;;;;5.80;3.27;;;;;;;;;;2075145;28;20181;-58
2021/12/08 01:15:31;;;;;;;3.27;3.07;;;;;;;;;;2075250;28;20192;-60
2021/12/08 01:16:31;;;;;;;4.87;3.30;;;;;;;;;;2065903;28;20201;-59
2021/12/08 01:17:32;;;;;;;4.63;2.87;;;;;;;;;;2067386;28;20274;-60
2021/12/08 01:18:33;;;;;;;3.07;2.77;;;;;;;;;;2065514;28;20232;-60
2021/12/08 01:19:33;;;;;;;6.57;3.60;;;;;;;;;;2073289;28;20172;-57
2021/12/08 01:20:34;;;;;;;6.20;3.13;;;;;;;;;;2073843;28;20268;-57
2021/12/08 01:21:34;;;;;;;5.20;2.87;;;;;;;;;;2074882;28;20177;-58
2021/12/08 01:22:35;;;;;;;5.87;3.20;;;;;;;;;;2056878;28;20200;-59
2021/12/08 01:23:36;;;;;;;3.17;2.97;;;;;;;;;;2058970;28;20785;-59
2021/12/08 01:24:37;;;;;;;3.40;3.10;;;;;;;;;;2070467;28;20184;-58
2021/12/08 01:25:37;;;;;;;4.70;2.90;;;;;;;;;;2075164;28;20557;-61
2021/12/08 01:26:37;;;;;;;4.67;3.40;;;;;;;;;;2072528;28;20214;-57
2021/12/08 01:27:37;;;;;;;4.90;3.50;;;;;;;;;;2073574;28;20285;-59
2021/12/08 01:28:38;;;;;;;3.63;2.80;;;;;;;;;;2072776;28;20177;-58
2021/12/08 01:29:39;;;;;;;3.57;3.23;;;;;;;;;;2074045;28;20177;-57
2021/12/08 01:30:39;;;;;;;2.83;2.63;;;;;;;;;;2070857;28;20185;-58
2021/12/08 01:31:41;;;;;;;3.40;2.93;;;;;;;;;;2073944;28;20264;-51
2021/12/08 01:32:42;;;;;;;6.10;3.30;;;;;;;;;;2072310;28;20239;-50
2021/12/08 01:33:42;;;;;;;4.20;3.07;;;;;;;;;;2073582;28;20961;-54
2021/12/08 01:34:42;;;;;;;6.30;3.13;;;;;;;;;;2072721;28;20180;-54
2021/12/08 01:35:43;;;;;;;5.60;3.70;;;;;;;;;;2076018;28;20226;-53
2021/12/08 01:36:43;;;;;;;5.97;3.97;;;;;;;;;;2072570;28;20678;-52
2021/12/08 01:37:43;;;;;;;4.17;3.27;;;;;;;;;;2075484;28;20287;-53
2021/12/08 01:38:44;;;;;;;5.00;3.67;;;;;;;;;;2073212;28;20237;-51
2021/12/08 01:39:44;;;;;;;7.53;3.20;;;;;;;;;;2072171;28;20180;-51
2021/12/08 01:40:45;;;;;;;5.23;3.50;;;;;;;;;;2071390;28;20177;-52
2021/12/08 01:41:47;;;;;;;3.60;3.10;;;;;;;;;;2075353;28;20177;-52
2021/12/08 01:42:50;;;;;;;3.50;3.20;;;;;;;;;;2072610;28;20169;-52
2021/12/08 01:46:31;;;;;;;4.87;3.80;;;;;;;;;;2070635;28;20180;-53
2021/12/08 01:47:31;;;;;;;4.70;3.27;;;;;;;;;;2063997;28;20801;-53
2021/12/08 01:48:33;;;;;;;4.83;3.37;;;;;;;;;;2071794;28;20248;-51
2021/12/08 01:49:33;;;;;;;5.13;3.13;;;;;;;;;;2072915;28;20169;-52
2021/12/08 01:50:34;;;;;;;4.37;3.60;;;;;;;;;;2071278;28;20189;-60
2021/12/08 01:51:34;;;;;;;3.87;3.13;;;;;;;;;;2074991;28;20165;-60
2021/12/08 01:52:35;;;;;;;4.17;3.77;;;;;;;;;;2074781;28;20168;-60
2021/12/08 01:53:35;;;;;;;4.93;3.60;;;;;;;;;;2073244;28;20210;-60
2021/12/08 01:54:35;;;;;;;3.27;2.83;;;;;;;;;;2074839;28;20169;-59
2021/12/08 01:55:36;;;;;;;4.17;3.63;;;;;;;;;;2070985;28;20187;-60
2021/12/08 01:56:37;;;;;;;7.60;3.67;;;;;;;;;;2073682;28;20639;-60
2021/12/08 01:57:38;;;;;;;6.57;3.87;;;;;;;;;;2073264;28;20177;-59
2021/12/08 01:58:38;;;;;;;4.27;3.87;;;;;;;;;;2073350;28;20173;-58
2021/12/08 01:59:38;;;;;;;3.57;3.27;;;;;;;;;;2073928;28;20173;-58
2021/12/08 02:00:44;;;;;;;4.70;3.30;;;;;;;;;;2072288;28;20208;-59
2021/12/08 02:01:45;;;;;;;6.43;3.70;;;;;;;;;;2073797;28;20307;-59
2021/12/08 02:02:45;;;;;;;4.40;3.57;;;;;;;;;;2072428;28;20566;-61
2021/12/08 02:03:45;;;;;;;4.10;3.80;;;;;;;;;;2073220;28;20201;-61
2021/12/08 02:04:45;;;;;;;7.00;3.60;;;;;;;;;;2073025;28;21049;-57
2021/12/08 02:05:46;;;;;;;7.10;4.03;;;;;;;;;;2073387;28;20706;-58
2021/12/08 02:06:47;;;;;;;4.23;3.83;;;;;;;;;;2063928;28;20188;-59
2021/12/08 02:07:47;;;;;;;6.40;3.77;;;;;;;;;;2072564;28;20193;-60
2021/12/08 02:08:50;;;;;;;4.97;3.33;;;;;;;;;;2072995;28;20172;-58
2021/12/08 02:09:51;;;;;;;5.07;3.73;;;;;;;;;;2072738;28;20641;-61
2021/12/08 02:10:51;;;;;;;4.70;3.50;;;;;;;;;;2071080;28;20236;-60
2021/12/08 02:11:55;;;;;;;7.10;3.90;;;;;;;;;;2072531;28;20173;-57
2021/12/08 02:12:55;;;;;;;5.10;3.93;;;;;;;;;;2071600;28;20185;-58
2021/12/08 02:14:00;;;;;;;3.60;3.30;;;;;;;;;;2074642;28;20425;-56
2021/12/08 02:15:01;;;;;;;6.67;3.70;;;;;;;;;;2074402;28;20173;-59
2021/12/08 02:16:02;;;;;;;5.27;3.77;;;;;;;;;;2074931;28;20188;-53
2021/12/08 02:17:02;;;;;;;4.37;3.23;;;;;;;;;;2075219;28;20181;-53
2021/12/08 02:18:03;;;;;;;4.27;3.83;;;;;;;;;;2074524;28;20177;-58
2021/12/08 02:19:04;;;;;;;4.50;4.10;;;;;;;;;;2073113;28;20187;-59
2021/12/08 02:20:06;;;;;;;5.97;4.47;;;;;;;;;;2074202;28;20196;-54
2021/12/08 02:21:19;;;;;;;4.93;4.00;;;;;;;;;;2074025;28;20544;-56
2021/12/08 02:22:19;;;;;;;6.13;3.90;;;;;;;;;;2072249;28;20176;-56
2021/12/08 02:23:19;;;;;;;5.20;3.93;;;;;;;;;;2073112;28;20651;-54
2021/12/08 02:24:21;;;;;;;8.90;4.13;;;;;;;;;;2069236;28;20176;-58
2021/12/08 02:25:23;;;;;;;5.40;3.80;;;;;;;;;;2074136;28;20179;-58
2021/12/08 02:26:24;;;;;;;5.67;3.83;;;;;;;;;;2074277;28;20513;-56
2021/12/08 02:27:24;;;;;;;4.07;3.57;;;;;;;;;;2075307;28;20886;-59
2021/12/08 02:28:24;;;;;;;4.77;3.70;;;;;;;;;;2072900;28;20175;-60
2021/12/08 02:29:37;;;;;;;6.13;3.93;;;;;;;;;;2078126;28;20172;-57
2021/12/08 02:46:37;;;;;;;3.97;3.67;;;;;;;;;;2079273;28;20177;-58
2021/12/08 02:47:13;;;;;;;5.53;4.37;;;;;;;;;;2073858;28;20677;-60
2021/12/08 02:48:13;;;;;;;4.87;3.97;;;;;;;;;;2069788;28;20169;-60
2021/12/08 02:49:14;;;;;;;4.20;3.90;;;;;;;;;;2075934;28;20906;-60
2021/12/08 02:50:14;;;;;;;4.17;3.77;;;;;;;;;;2073571;28;20212;-59
2021/12/08 02:51:15;;;;;;;4.43;4.03;;;;;;;;;;2074572;28;20255;-62
2021/12/08 02:52:15;;;;;;;8.43;4.07;;;;;;;;;;2074557;28;20227;-57
2021/12/08 02:53:16;;;;;;;5.67;4.60;;;;;;;;;;2075837;28;20177;-60
2021/12/08 02:54:16;;;;;;;4.73;4.37;;;;;;;;;;2075718;28;20180;-60
2021/12/08 02:55:17;;;;;;;5.77;4.20;;;;;;;;;;2076678;28;20217;-57
2021/12/08 02:56:17;;;;;;;9.83;4.77;;;;;;;;;;2075516;28;20253;-57
2021/12/08 02:57:18;;;;;;;4.50;4.03;;;;;;;;;;2074847;28;20204;-54
2021/12/08 02:58:19;;;;;;;12.83;4.40;;;;;;;;;;2075558;28;20181;-57
2021/12/08 02:59:19;;;;;;;4.57;4.17;;;;;;;;;;2075968;28;20179;-58
2021/12/08 03:00:24;;;;;;;5.27;4.57;;;;;;;;;;2074612;28;20182;-55
2021/12/08 03:01:24;;;;;;;5.83;4.80;;;;;;;;;;2074880;28;20180;-59
2021/12/08 03:02:25;;;;;;;5.47;4.13;;;;;;;;;;2075912;28;20503;-58
2021/12/08 03:03:25;;;;;;;4.40;4.00;;;;;;;;;;2076385;28;20235;-59
2021/12/08 03:04:26;;;;;;;8.90;4.43;;;;;;;;;;2074850;28;20197;-59
2021/12/08 03:05:27;;;;;;;5.03;4.63;;;;;;;;;;2074875;28;20165;-58
2021/12/08 03:06:27;;;;;;;5.33;4.37;;;;;;;;;;2074141;28;20287;-58
2021/12/08 03:07:28;;;;;;;6.90;5.00;;;;;;;;;;2074717;28;20184;-59
2021/12/08 03:08:28;;;;;;;6.03;4.63;;;;;;;;;;2074447;28;20264;-57
2021/12/08 03:09:28;;;;;;;5.87;4.90;;;;;;;;;;2075465;28;20268;-60
2021/12/08 03:10:30;;;;;;;6.50;4.50;;;;;;;;;;2074740;28;20563;-58
2021/12/08 03:11:30;;;;;;;4.60;4.30;;;;;;;;;;2075062;28;20188;-57
2021/12/08 03:12:30;;;;;;;6.00;4.33;;;;;;;;;;2074878;28;20177;-58
2021/12/08 03:13:39;;;;;;;7.90;4.37;;;;;;;;;;2074188;28;20783;-59
2021/12/08 03:14:40;;;;;;;5.00;4.07;;;;;;;;;;2074189;28;20152;-55
2021/12/08 03:15:41;;;;;;;4.63;4.33;;;;;;;;;;2074602;28;20169;-56
2021/12/08 03:16:45;;;;;;;4.73;4.43;;;;;;;;;;2074802;28;20248;-58
2021/12/08 03:17:45;;;;;;;5.30;4.80;;;;;;;;;;2075915;28;20364;-56
2021/12/08 03:18:45;;;;;;;4.60;4.20;;;;;;;;;;2075613;28;20235;-56
2021/12/08 03:19:46;;;;;;;5.07;4.57;;;;;;;;;;2075379;28;20177;-58
2021/12/08 03:20:49;;;;;;;5.70;4.60;;;;;;;;;;2075570;28;20205;-57
2021/12/08 03:21:49;;;;;;;4.80;4.33;;;;;;;;;;2075194;28;20247;-57
2021/12/08 03:22:51;;;;;;;6.33;4.80;;;;;;;;;;2075059;28;20189;-53
2021/12/08 03:24:05;;;;;;;4.90;4.13;;;;;;;;;;2073821;28;20216;-52
2021/12/08 03:25:08;;;;;;;5.30;4.53;;;;;;;;;;2065519;28;20626;-57
2021/12/08 03:26:09;;;;;;;4.60;4.30;;;;;;;;;;2064977;28;20185;-53
2021/12/08 03:27:13;;;;;;;5.60;4.57;;;;;;;;;;2065606;28;20192;-54
2021/12/08 03:28:19;;;;;;;4.70;4.30;;;;;;;;;;2069075;28;20196;-56
2021/12/08 03:29:31;;;;;;;4.73;4.33;;;;;;;;;;2074495;28;20220;-57
2021/12/08 03:30:38;;;;;;;4.17;3.77;;;;;;;;;;2071500;28;20283;-57
2021/12/08 03:31:42;;;;;;;5.13;3.83;;;;;;;;;;2068737;28;20176;-58
2021/12/08 03:32:43;;;;;;;4.30;3.83;;;;;;;;;;2070162;28;20642;-56
2021/12/08 03:33:45;;;;;;;4.47;4.07;;;;;;;;;;2070355;28;20209;-57
2021/12/08 03:34:52;;;;;;;6.03;4.10;;;;;;;;;;2071185;28;20173;-59
2021/12/08 03:35:52;;;;;;;5.17;4.17;;;;;;;;;;2071295;28;20262;-55
2021/12/08 03:36:52;;;;;;;4.00;3.60;;;;;;;;;;2070532;28;20248;-57
2021/12/08 03:37:53;;;;;;;4.53;4.13;;;;;;;;;;2068155;28;20873;-57
2021/12/08 03:38:53;;;;;;;4.30;4.03;;;;;;;;;;2072230;28;20223;-57
2021/12/08 03:39:54;;;;;;;4.17;3.87;;;;;;;;;;2063580;28;20232;-58
2021/12/08 03:40:57;;;;;;;4.53;3.90;;;;;;;;;;2071371;28;20181;-58
2021/12/08 03:41:57;;;;;;;4.00;3.70;;;;;;;;;;2068250;28;20635;-59
2021/12/08 03:42:58;;;;;;;3.80;3.57;;;;;;;;;;2072981;28;20235;-54
2021/12/08 03:43:58;;;;;;;4.10;3.70;;;;;;;;;;2072995;28;20219;-58
2021/12/08 03:45:02;;;;;;;3.67;3.37;;;;;;;;;;2073194;28;20173;-57
2021/12/08 03:46:04;;;;;;;4.77;4.37;;;;;;;;;;2072091;28;20264;-60
2021/12/08 03:47:13;;;;;;;4.10;3.80;;;;;;;;;;2073136;28;20177;-54
2021/12/08 03:48:21;;;;;;;4.33;3.93;;;;;;;;;;2073445;28;20252;-56
2021/12/08 03:49:21;;;;;;;3.87;3.57;;;;;;;;;;2079487;28;20215;-60
2021/12/08 03:50:21;;;;;;;4.80;3.53;;;;;;;;;;2072927;28;20201;-55
2021/12/08 03:51:21;;;;;;;4.57;3.93;;;;;;;;;;2072377;28;20176;-58
2021/12/08 03:52:22;;;;;;;4.90;3.60;;;;;;;;;;2073444;28;20590;-55
2021/12/08 03:53:22;;;;;;;4.27;3.80;;;;;;;;;;2072503;28;20577;-57
2021/12/08 03:54:22;;;;;;;5.47;3.50;;;;;;;;;;2072574;28;20165;-56
2021/12/08 03:55:23;;;;;;;2.90;2.80;;;;;;;;;;2071716;28;20239;-57
2021/12/08 03:56:23;;;;;;;3.73;3.50;;;;;;;;;;2071944;28;20169;-59
2021/12/08 03:57:24;;;;;;;4.00;3.70;;;;;;;;;;2071530;28;20188;-56
2021/12/08 03:58:25;;;;;;;4.33;3.93;;;;;;;;;;2064522;28;20178;-60
2021/12/08 03:59:25;;;;;;;4.07;3.70;;;;;;;;;;2072195;28;20177;-57
2021/12/08 04:00:26;;;;;;;3.43;3.23;;;;;;;;;;2073293;28;20180;-58
2021/12/08 04:01:26;;;;;;;4.10;3.80;;;;;;;;;;2069778;28;20636;-57
2021/12/08 04:02:27;;;;;;;4.13;3.83;;;;;;;;;;2072734;28;20176;-58
2021/12/08 04:03:30;;;;;;;4.10;3.80;;;;;;;;;;2071307;28;20786;-57
2021/12/08 04:04:40;;;;;;;3.70;3.40;;;;;;;;;;2073061;28;20172;-58
2021/12/08 04:05:51;;;;;;;4.00;3.70;;;;;;;;;;2072569;28;20177;-56
2021/12/08 04:06:52;;;;;;;4.23;3.93;;;;;;;;;;2071370;28;20173;-56
2021/12/08 04:07:53;;;;;;;5.23;3.77;;;;;;;;;;2064331;28;20192;-58
2021/12/08 04:08:56;;;;;;;4.00;3.70;;;;;;;;;;2063619;28;20182;-59
2021/12/08 04:09:56;;;;;;;4.53;4.00;;;;;;;;;;2071127;28;20272;-55
2021/12/08 04:10:57;;;;;;;3.50;3.30;;;;;;;;;;2067314;28;20208;-55
2021/12/08 04:11:58;;;;;;;4.70;3.40;;;;;;;;;;2071579;28;20219;-59
2021/12/08 04:12:59;;;;;;;9.50;3.90;;;;;;;;;;2072473;28;20254;-58
2021/12/08 04:14:07;;;;;;;3.90;3.60;;;;;;;;;;2063973;28;20281;-59
2021/12/08 04:15:09;;;;;;;3.63;3.43;;;;;;;;;;2063797;28;20177;-59
2021/12/08 04:16:10;;;;;;;3.40;3.20;;;;;;;;;;2064289;28;20545;-55
2021/12/08 04:17:12;;;;;;;3.83;3.50;;;;;;;;;;2067156;28;20173;-58
2021/12/08 04:18:12;;;;;;;3.53;3.33;;;;;;;;;;2072967;28;20177;-59
2021/12/08 04:19:13;;;;;;;3.80;3.57;;;;;;;;;;2072425;28;20165;-60
2021/12/08 04:20:19;;;;;;;3.43;3.23;;;;;;;;;;2072357;28;20881;-55
2021/12/08 04:21:20;;;;;;;4.73;4.30;;;;;;;;;;2066700;28;20227;-58
2021/12/08 04:22:23;;;;;;;3.53;3.30;;;;;;;;;;2072090;28;20176;-58
2021/12/08 04:24:30;;;;;;;3.03;2.93;;;;;;;;;;2058190;28;20217;-50
2021/12/08 04:25:32;;;;;;;4.00;3.60;;;;;;;;;;2067816;28;20169;-51
2021/12/08 04:26:39;;;;;;;3.90;3.13;;;;;;;;;;2061945;28;20670;-49
2021/12/08 04:27:40;;;;;;;3.00;2.90;;;;;;;;;;2058006;28;20174;-51
2021/12/08 04:28:41;;;;;;;3.30;3.10;;;;;;;;;;2062351;28;20633;-50
2021/12/08 04:29:43;;;;;;;3.67;3.37;;;;;;;;;;2071111;28;20177;-50
2021/12/08 04:31:05;;;;;;;3.10;2.90;;;;;;;;;;2070751;28;20239;-53
2021/12/08 04:32:07;;;;;;;3.63;3.33;;;;;;;;;;2064872;28;20170;-50
2021/12/08 04:33:08;;;;;;;3.40;3.20;;;;;;;;;;2056448;28;20189;-52
2021/12/08 04:34:14;;;;;;;3.33;3.13;;;;;;;;;;2044484;28;20258;-51
2021/12/08 04:35:17;;;;;;;2.87;2.77;;;;;;;;;;2050848;28;20171;-54
2021/12/08 04:36:18;;;;;;;3.00;2.90;;;;;;;;;;2072392;28;20722;-50
2021/12/08 04:37:25;;;;;;;3.47;3.17;;;;;;;;;;2069196;28;20643;-50
2021/12/08 04:38:31;;;;;;;3.00;2.67;;;;;;;;;;2070006;28;20165;-51
2021/12/08 04:42:05;;;;;;;3.40;3.10;;;;;;;;;;2061465;28;20189;-50
2021/12/08 04:43:15;;;;;;;3.20;3.00;;;;;;;;;;2055725;28;20262;-51
2021/12/08 04:44:55;;;;;;;3.37;3.13;;;;;;;;;;2051287;28;20218;-51
2021/12/08 04:45:53;;;;;;;3.50;3.30;;;;;;;;;;2065274;28;20243;-52
2021/12/08 04:51:25;;;;;;;3.20;2.80;;;;;;;;;;2072565;28;20193;-50
2021/12/08 04:52:50;;;;;;;3.30;3.10;;;;;;;;;;2063372;28;20179;-51
2021/12/08 05:03:24;;;;;;;3.13;2.97;;;;;;;;;;2074117;28;20575;-49
2021/12/08 05:04:44;;;;;;;3.50;3.20;;;;;;;;;;2063093;28;20205;-52
2021/12/08 05:07:02;;;;;;;3.23;3.03;;;;;;;;;;2071914;28;20260;-51
2021/12/08 05:08:13;;;;;;;3.10;2.97;;;;;;;;;;2064427;28;20176;-53
2021/12/08 05:09:21;;;;;;;3.43;3.23;;;;;;;;;;2065370;28;20841;-50
2021/12/08 05:10:25;;;;;;;3.73;3.00;;;;;;;;;;2068754;28;20240;-53
2021/12/08 05:11:27;;;;;;;2.70;2.60;;;;;;;;;;2065492;28;20212;-53
2021/12/08 05:12:30;;;;;;;3.30;3.10;;;;;;;;;;2060555;28;20559;-50
2021/12/08 05:13:30;;;;;;;3.20;3.00;;;;;;;;;;2069247;28;20242;-53
2021/12/08 05:14:33;;;;;;;3.60;3.40;;;;;;;;;;2069584;28;20189;-53
2021/12/08 05:15:40;;;;;;;3.70;3.50;;;;;;;;;;2072235;28;20172;-54
2021/12/08 05:16:42;;;;;;;3.00;2.90;;;;;;;;;;2057716;28;20189;-54
2021/12/08 05:17:47;;;;;;;3.37;3.13;;;;;;;;;;2063341;28;20182;-53
2021/12/08 05:18:49;;;;;;;3.30;3.10;;;;;;;;;;2064577;28;20281;-53
2021/12/08 05:19:51;;;;;;;3.53;3.20;;;;;;;;;;2064777;28;20237;-54
2021/12/08 05:20:56;;;;;;;3.20;3.00;;;;;;;;;;2064987;28;20192;-53
2021/12/08 05:22:02;;;;;;;4.37;3.60;;;;;;;;;;2063994;28;20725;-52
2021/12/08 05:23:06;;;;;;;3.80;3.50;;;;;;;;;;2066064;28;20182;-54
2021/12/08 05:24:08;;;;;;;3.67;3.47;;;;;;;;;;2062129;28;20236;-52
2021/12/08 05:25:10;;;;;;;3.17;2.97;;;;;;;;;;2058718;28;20189;-53
2021/12/08 05:26:13;;;;;;;3.83;3.50;;;;;;;;;;2067259;28;20177;-51
2021/12/08 05:27:15;;;;;;;3.43;3.23;;;;;;;;;;2062999;28;20194;-51
2021/12/08 05:28:17;;;;;;;3.60;3.40;;;;;;;;;;2073718;28;20173;-53
2021/12/08 05:29:23;;;;;;;3.77;3.47;;;;;;;;;;2072307;28;20177;-53
2021/12/08 05:30:29;;;;;;;3.60;3.40;;;;;;;;;;2060517;28;20257;-50
2021/12/08 05:31:30;;;;;;;3.60;3.30;;;;;;;;;;2063918;28;20224;-53
2021/12/08 05:32:31;;;;;;;3.77;3.37;;;;;;;;;;2070742;28;20165;-53
2021/12/08 05:33:31;;;;;;;3.60;3.27;;;;;;;;;;2069034;28;20177;-47
2021/12/08 05:34:33;;;;;;;3.33;3.03;;;;;;;;;;2070012;28;20198;-51
2021/12/08 05:35:33;;;;;;;3.60;3.30;;;;;;;;;;2067435;28;20184;-52
2021/12/08 05:36:34;;;;;;;3.70;3.40;;;;;;;;;;2069370;28;20204;-53
2021/12/08 05:37:34;;;;;;;3.20;3.00;;;;;;;;;;2073990;28;20177;-49
2021/12/08 05:38:34;;;;;;;3.57;3.37;;;;;;;;;;2071106;28;20205;-51
2021/12/08 05:39:35;;;;;;;4.13;3.30;;;;;;;;;;2067360;28;20187;-50
2021/12/08 05:40:35;;;;;;;4.87;3.40;;;;;;;;;;2062163;28;20177;-45
2021/12/08 05:41:37;;;;;;;3.60;3.30;;;;;;;;;;2071630;28;20612;-50
2021/12/08 05:42:37;;;;;;;3.67;3.37;;;;;;;;;;2072957;28;20243;-55
2021/12/08 05:43:38;;;;;;;3.43;3.23;;;;;;;;;;2065553;28;20260;-50
2021/12/08 05:44:38;;;;;;;3.57;3.30;;;;;;;;;;2060882;28;20197;-49
2021/12/08 05:45:39;;;;;;;4.00;3.70;;;;;;;;;;2053749;28;20205;-48
2021/12/08 05:46:42;;;;;;;4.13;3.60;;;;;;;;;;2057899;28;20181;-50
2021/12/08 05:47:43;;;;;;;12.23;3.53;;;;;;;;;;2070409;28;20187;-54
2021/12/08 05:48:46;;;;;;;3.30;3.10;;;;;;;;;;2063575;28;20185;-51
2021/12/08 05:49:48;;;;;;;3.97;3.57;;;;;;;;;;2068803;28;20210;-50
2021/12/08 05:50:57;;;;;;;3.30;3.10;;;;;;;;;;2071910;28;20209;-52
2021/12/08 05:51:57;;;;;;;3.87;3.57;;;;;;;;;;2064980;28;20189;-49
2021/12/08 05:52:58;;;;;;;4.20;3.90;;;;;;;;;;2067085;28;20181;-50
2021/12/08 05:54:05;;;;;;;3.83;3.53;;;;;;;;;;2058819;28;20198;-50
2021/12/08 05:55:06;;;;;;;3.33;3.13;;;;;;;;;;2065969;28;20192;-52
2021/12/08 05:56:07;;;;;;;3.47;3.27;;;;;;;;;;2069696;28;20189;-54
2021/12/08 05:57:28;;;;;;;3.97;3.63;;;;;;;;;;2067519;28;20174;-51
2021/12/08 05:58:30;;;;;;;3.67;3.47;;;;;;;;;;2066552;28;20634;-53
2021/12/08 05:59:30;;;;;;;3.63;3.43;;;;;;;;;;2063728;28;20195;-51
2021/12/08 06:00:34;;;;;;;3.70;3.50;;;;;;;;;;2067508;28;20172;-53
2021/12/08 06:01:36;;;;;;;3.50;3.30;;;;;;;;;;2065679;28;20711;-52
2021/12/08 06:02:37;;;;;;;3.57;3.37;;;;;;;;;;2060865;28;20185;-51
2021/12/08 06:03:38;;;;;;;3.20;3.00;;;;;;;;;;2061950;28;20171;-53
2021/12/08 06:04:39;;;;;;;3.80;3.50;;;;;;;;;;2063905;28;20691;-52
2021/12/08 06:05:39;;;;;;;3.30;3.10;;;;;;;;;;2055824;28;20190;-53
2021/12/08 06:06:40;;;;;;;3.60;3.30;;;;;;;;;;2057134;28;20566;-54
2021/12/08 06:07:40;;;;;;;3.63;3.33;;;;;;;;;;2065504;28;20177;-54
2021/12/08 06:08:40;;;;;;;3.53;3.33;;;;;;;;;;2065342;28;20189;-53
2021/12/08 06:09:41;;;;;;;3.47;3.17;;;;;;;;;;2065321;28;20296;-51
2021/12/08 06:10:43;;;;;;;4.27;3.53;;;;;;;;;;2065924;28;20186;-52
2021/12/08 06:11:44;;;;;;;3.30;3.10;;;;;;;;;;2065307;28;20174;-50
2021/12/08 06:12:44;;;;;;;3.63;3.37;;;;;;;;;;2065251;28;20162;-54
2021/12/08 06:13:46;;;;;;;3.73;3.43;;;;;;;;;;2065890;28;20170;-50
2021/12/08 06:14:46;;;;;;;3.83;3.53;;;;;;;;;;2065378;28;20260;-54
2021/12/08 06:15:47;;;;;;;3.60;3.30;;;;;;;;;;2064569;28;20205;-50
2021/12/08 06:16:49;;;;;;;3.47;3.17;;;;;;;;;;2062624;28;20181;-51
2021/12/08 06:17:49;;;;;;;3.70;3.50;;;;;;;;;;2055050;28;20709;-51
2021/12/08 06:18:51;;;;;;;3.63;3.43;;;;;;;;;;2055584;28;20200;-50
2021/12/08 06:19:53;;;;;;;3.67;3.37;;;;;;;;;;2069405;28;20181;-55
2021/12/08 06:20:55;;;;;;;3.03;2.83;;;;;;;;;;2070931;28;20635;-52
2021/12/08 06:21:55;;;;;;;3.53;3.23;;;;;;;;;;2064706;28;20268;-56
2021/12/08 06:22:57;;;;;;;3.57;3.37;;;;;;;;;;2072146;28;20284;-52
2021/12/08 06:23:58;;;;;;;3.97;3.60;;;;;;;;;;2070920;28;20208;-50
2021/12/08 06:24:58;;;;;;;3.67;3.37;;;;;;;;;;2072556;28;20177;-53
2021/12/08 06:25:59;;;;;;;3.60;3.40;;;;;;;;;;2073616;28;20180;-53
2021/12/08 06:27:00;;;;;;;3.63;3.43;;;;;;;;;;2064547;28;20209;-51
2021/12/08 06:28:00;;;;;;;4.50;4.20;;;;;;;;;;2065496;28;20208;-51
2021/12/08 06:29:02;;;;;;;4.70;4.30;;;;;;;;;;2065208;28;20196;-51
2021/12/08 06:30:04;;;;;;;4.43;4.07;;;;;;;;;;2065507;28;20169;-49
2021/12/08 06:31:05;;;;;;;3.70;3.50;;;;;;;;;;2065527;28;20251;-51
2021/12/08 06:32:07;;;;;;;3.83;3.57;;;;;;;;;;2067711;28;20205;-50
2021/12/08 06:33:07;;;;;;;3.67;3.43;;;;;;;;;;2063131;28;20182;-51
2021/12/08 06:34:08;;;;;;;3.80;3.50;;;;;;;;;;2065925;28;20269;-54
2021/12/08 06:35:10;;;;;;;3.67;3.40;;;;;;;;;;2065411;28;20264;-50
2021/12/08 06:36:29;;;;;;;3.47;3.27;;;;;;;;;;2064980;28;20177;-51
2021/12/08 06:37:32;;;;;;;3.30;3.10;;;;;;;;;;2064831;28;20166;-51
2021/12/08 06:38:32;;;;;;;3.60;3.30;;;;;;;;;;2065877;28;20264;-52
2021/12/08 06:39:35;;;;;;;3.80;3.40;;;;;;;;;;2065696;28;20182;-53
2021/12/08 06:40:47;;;;;;;3.93;3.63;;;;;;;;;;2065209;28;20185;-52
2021/12/08 06:41:51;;;;;;;3.47;3.30;;;;;;;;;;2064053;28;20188;-51
2021/12/08 06:42:52;;;;;;;3.60;3.30;;;;;;;;;;2065917;28;20228;-49
2021/12/08 06:43:55;;;;;;;3.00;2.70;;;;;;;;;;2063512;28;20267;-49
2021/12/08 06:44:56;;;;;;;5.23;3.20;;;;;;;;;;2062819;28;20656;-53
2021/12/08 06:45:58;;;;;;;3.60;3.30;;;;;;;;;;2062750;28;20201;-52
2021/12/08 06:47:01;;;;;;;3.60;3.40;;;;;;;;;;2073145;28;20177;-54
2021/12/08 06:48:02;;;;;;;8.97;8.47;;;;;;;;;;2065331;28;20638;-54
2021/12/08 06:49:04;;;;;;;8.87;8.27;;;;;;;;;;2065171;28;20235;-51
2021/12/08 06:50:07;;;;;;;5.03;4.53;;;;;;;;;;2057463;28;20522;-54
2021/12/08 06:51:16;;;;;;;3.90;3.60;;;;;;;;;;2057686;28;20182;-51
2021/12/08 06:52:19;;;;;;;4.10;3.80;;;;;;;;;;2065906;28;20208;-54